sensor_id;sensor_type;location;lat;lon;timestamp;temperature;humidity
46091;DHT22;31826;53.572;10.170;2024-01-30T00:01:36;4.10;99.90
46091;DHT22;31826;53.572;10.170;2024-01-30T00:04:02;4.10;99.90
46091;DHT22;31826;53.572;10.170;2024-01-30T00:06:28;4.10;99.90
46091;DHT22;31826;53.572;10.170;2024-01-30T00:08:53;4.10;99.90
46091;DHT22;31826;53.572;10.170;2024-01-30T00:11:19;4.10;99.90
46091;DHT22;31826;53.572;10.170;2024-01-30T00:13:45;4.00;99.90
46091;DHT22;31826;53.572;10.170;2024-01-30T00:16:21;4.00;99.90
46091;DHT22;31826;53.572;10.170;2024-01-30T00:18:47;4.00;99.90
46091;DHT22;31826;53.572;10.170;2024-01-30T00:21:13;4.00;99.90
46091;DHT22;31826;53.572;10.170;2024-01-30T00:23:39;4.00;99.90
46091;DHT22;31826;53.572;10.170;2024-01-30T00:26:05;4.00;99.90
46091;DHT22;31826;53.572;10.170;2024-01-30T00:28:31;3.90;99.90
46091;DHT22;31826;53.572;10.170;2024-01-30T00:30:57;3.90;99.90
46091;DHT22;31826;53.572;10.170;2024-01-30T00:33:23;3.90;99.90
46091;DHT22;31826;53.572;10.170;2024-01-30T00:35:48;3.80;99.90
46091;DHT22;31826;53.572;10.170;2024-01-30T00:38:14;3.70;99.90
46091;DHT22;31826;53.572;10.170;2024-01-30T00:40:40;3.70;99.90
46091;DHT22;31826;53.572;10.170;2024-01-30T00:43:06;3.70;99.90
46091;DHT22;31826;53.572;10.170;2024-01-30T00:45:32;3.70;99.90
46091;DHT22;31826;53.572;10.170;2024-01-30T00:47:58;3.70;99.90
46091;DHT22;31826;53.572;10.170;2024-01-30T00:50:23;3.70;99.90
46091;DHT22;31826;53.572;10.170;2024-01-30T00:52:49;3.70;99.90
46091;DHT22;31826;53.572;10.170;2024-01-30T00:55:15;3.70;99.90
46091;DHT22;31826;53.572;10.170;2024-01-30T00:57:40;3.70;99.90
46091;DHT22;31826;53.572;10.170;2024-01-30T01:00:07;3.70;99.90
46091;DHT22;31826;53.572;10.170;2024-01-30T01:02:35;3.70;99.90
46091;DHT22;31826;53.572;10.170;2024-01-30T01:05:01;3.70;99.90
46091;DHT22;31826;53.572;10.170;2024-01-30T01:07:27;3.70;99.90
46091;DHT22;31826;53.572;10.170;2024-01-30T01:09:53;3.70;99.90
46091;DHT22;31826;53.572;10.170;2024-01-30T01:12:19;3.70;99.90
46091;DHT22;31826;53.572;10.170;2024-01-30T01:14:45;3.70;99.90
46091;DHT22;31826;53.572;10.170;2024-01-30T01:17:10;3.80;99.90
46091;DHT22;31826;53.572;10.170;2024-01-30T01:19:36;3.70;99.90
46091;DHT22;31826;53.572;10.170;2024-01-30T01:22:02;3.80;99.90
46091;DHT22;31826;53.572;10.170;2024-01-30T01:24:30;3.70;99.90
46091;DHT22;31826;53.572;10.170;2024-01-30T01:26:57;3.70;99.90
46091;DHT22;31826;53.572;10.170;2024-01-30T01:29:23;3.60;99.90
46091;DHT22;31826;53.572;10.170;2024-01-30T01:31:57;3.70;99.90
46091;DHT22;31826;53.572;10.170;2024-01-30T01:34:23;3.60;99.90
46091;DHT22;31826;53.572;10.170;2024-01-30T01:36:49;3.70;99.90
46091;DHT22;31826;53.572;10.170;2024-01-30T01:39:15;3.60;99.90
46091;DHT22;31826;53.572;10.170;2024-01-30T01:41:41;3.70;99.90
46091;DHT22;31826;53.572;10.170;2024-01-30T01:44:07;3.70;99.90
46091;DHT22;31826;53.572;10.170;2024-01-30T01:46:34;3.70;99.90
46091;DHT22;31826;53.572;10.170;2024-01-30T01:49:04;3.70;99.90
46091;DHT22;31826;53.572;10.170;2024-01-30T01:51:33;3.70;99.90
46091;DHT22;31826;53.572;10.170;2024-01-30T01:54:01;3.70;99.90
46091;DHT22;31826;53.572;10.170;2024-01-30T01:56:28;3.70;99.90
46091;DHT22;31826;53.572;10.170;2024-01-30T01:58:55;3.70;99.90
46091;DHT22;31826;53.572;10.170;2024-01-30T02:01:23;3.80;99.90
46091;DHT22;31826;53.572;10.170;2024-01-30T02:03:50;3.70;99.90
46091;DHT22;31826;53.572;10.170;2024-01-30T02:06:16;3.70;99.90
46091;DHT22;31826;53.572;10.170;2024-01-30T02:08:42;3.70;99.90
46091;DHT22;31826;53.572;10.170;2024-01-30T02:11:08;3.70;99.90
46091;DHT22;31826;53.572;10.170;2024-01-30T02:13:36;3.70;99.90
46091;DHT22;31826;53.572;10.170;2024-01-30T02:16:01;3.60;99.90
46091;DHT22;31826;53.572;10.170;2024-01-30T02:18:27;3.60;99.90
46091;DHT22;31826;53.572;10.170;2024-01-30T02:20:54;3.60;99.90
46091;DHT22;31826;53.572;10.170;2024-01-30T02:23:26;3.70;99.90
46091;DHT22;31826;53.572;10.170;2024-01-30T02:25:52;3.70;99.90
46091;DHT22;31826;53.572;10.170;2024-01-30T02:28:19;3.70;99.90
46091;DHT22;31826;53.572;10.170;2024-01-30T02:30:46;3.70;99.90
46091;DHT22;31826;53.572;10.170;2024-01-30T02:33:13;3.80;99.90
46091;DHT22;31826;53.572;10.170;2024-01-30T02:35:38;3.80;99.90
46091;DHT22;31826;53.572;10.170;2024-01-30T02:38:04;3.70;99.90
46091;DHT22;31826;53.572;10.170;2024-01-30T02:40:30;3.70;99.90
46091;DHT22;31826;53.572;10.170;2024-01-30T02:42:59;3.70;99.90
46091;DHT22;31826;53.572;10.170;2024-01-30T02:45:25;3.80;99.90
46091;DHT22;31826;53.572;10.170;2024-01-30T02:47:51;3.80;99.90
46091;DHT22;31826;53.572;10.170;2024-01-30T02:50:17;3.80;99.90
46091;DHT22;31826;53.572;10.170;2024-01-30T02:52:43;3.80;99.90
46091;DHT22;31826;53.572;10.170;2024-01-30T02:55:11;3.80;99.90
46091;DHT22;31826;53.572;10.170;2024-01-30T02:57:40;3.80;99.90
46091;DHT22;31826;53.572;10.170;2024-01-30T03:00:06;3.80;99.90
46091;DHT22;31826;53.572;10.170;2024-01-30T03:02:35;3.80;99.90
46091;DHT22;31826;53.572;10.170;2024-01-30T03:05:01;3.80;99.90
46091;DHT22;31826;53.572;10.170;2024-01-30T03:07:26;3.80;99.90
46091;DHT22;31826;53.572;10.170;2024-01-30T03:09:52;3.80;99.90
46091;DHT22;31826;53.572;10.170;2024-01-30T03:12:18;3.80;99.90
46091;DHT22;31826;53.572;10.170;2024-01-30T03:14:43;3.80;99.90
46091;DHT22;31826;53.572;10.170;2024-01-30T03:17:09;3.80;99.90
46091;DHT22;31826;53.572;10.170;2024-01-30T03:19:35;3.80;99.90
46091;DHT22;31826;53.572;10.170;2024-01-30T03:22:00;3.80;99.90
46091;DHT22;31826;53.572;10.170;2024-01-30T03:24:26;3.70;99.90
46091;DHT22;31826;53.572;10.170;2024-01-30T03:26:52;3.70;99.90
46091;DHT22;31826;53.572;10.170;2024-01-30T03:29:18;3.70;99.90
46091;DHT22;31826;53.572;10.170;2024-01-30T03:31:44;3.60;99.90
46091;DHT22;31826;53.572;10.170;2024-01-30T03:34:09;3.60;99.90
46091;DHT22;31826;53.572;10.170;2024-01-30T03:36:35;3.60;99.90
46091;DHT22;31826;53.572;10.170;2024-01-30T03:39:01;3.60;99.90
46091;DHT22;31826;53.572;10.170;2024-01-30T03:41:27;3.50;99.90
46091;DHT22;31826;53.572;10.170;2024-01-30T03:43:53;3.60;99.90
46091;DHT22;31826;53.572;10.170;2024-01-30T03:46:18;3.70;99.90
46091;DHT22;31826;53.572;10.170;2024-01-30T03:48:45;3.60;99.90
46091;DHT22;31826;53.572;10.170;2024-01-30T03:51:11;3.60;99.90
46091;DHT22;31826;53.572;10.170;2024-01-30T03:53:41;3.50;99.90
46091;DHT22;31826;53.572;10.170;2024-01-30T03:56:08;3.50;99.90
46091;DHT22;31826;53.572;10.170;2024-01-30T03:58:34;3.50;99.90
46091;DHT22;31826;53.572;10.170;2024-01-30T04:00:59;3.50;99.90
46091;DHT22;31826;53.572;10.170;2024-01-30T04:03:25;3.50;99.90
46091;DHT22;31826;53.572;10.170;2024-01-30T04:05:54;3.50;99.90
46091;DHT22;31826;53.572;10.170;2024-01-30T04:08:19;3.50;99.90
46091;DHT22;31826;53.572;10.170;2024-01-30T04:10:46;3.50;99.90
46091;DHT22;31826;53.572;10.170;2024-01-30T04:13:12;3.60;99.90
46091;DHT22;31826;53.572;10.170;2024-01-30T04:15:38;3.50;99.90
46091;DHT22;31826;53.572;10.170;2024-01-30T04:18:04;3.60;99.90
46091;DHT22;31826;53.572;10.170;2024-01-30T04:20:30;3.60;99.90
46091;DHT22;31826;53.572;10.170;2024-01-30T04:22:56;3.60;99.90
46091;DHT22;31826;53.572;10.170;2024-01-30T04:25:21;3.60;99.90
46091;DHT22;31826;53.572;10.170;2024-01-30T04:27:47;3.50;99.90
46091;DHT22;31826;53.572;10.170;2024-01-30T04:30:13;3.50;99.90
46091;DHT22;31826;53.572;10.170;2024-01-30T04:32:39;3.50;99.90
46091;DHT22;31826;53.572;10.170;2024-01-30T04:35:05;3.50;99.90
46091;DHT22;31826;53.572;10.170;2024-01-30T04:37:31;3.40;99.90
46091;DHT22;31826;53.572;10.170;2024-01-30T04:39:56;3.50;99.90
46091;DHT22;31826;53.572;10.170;2024-01-30T04:42:22;3.50;99.90
46091;DHT22;31826;53.572;10.170;2024-01-30T04:44:48;3.50;99.90
46091;DHT22;31826;53.572;10.170;2024-01-30T04:47:14;3.50;99.90
46091;DHT22;31826;53.572;10.170;2024-01-30T04:49:39;3.50;99.90
46091;DHT22;31826;53.572;10.170;2024-01-30T04:52:06;3.50;99.90
46091;DHT22;31826;53.572;10.170;2024-01-30T04:54:32;3.40;99.90
46091;DHT22;31826;53.572;10.170;2024-01-30T04:56:58;3.50;99.90
46091;DHT22;31826;53.572;10.170;2024-01-30T04:59:24;3.50;99.90
46091;DHT22;31826;53.572;10.170;2024-01-30T05:01:50;3.40;99.90
46091;DHT22;31826;53.572;10.170;2024-01-30T05:04:15;3.50;99.90
46091;DHT22;31826;53.572;10.170;2024-01-30T05:06:41;3.50;99.90
46091;DHT22;31826;53.572;10.170;2024-01-30T05:09:07;3.50;99.90
46091;DHT22;31826;53.572;10.170;2024-01-30T05:11:40;3.60;99.90
46091;DHT22;31826;53.572;10.170;2024-01-30T05:14:07;3.50;99.90
46091;DHT22;31826;53.572;10.170;2024-01-30T05:16:33;3.50;99.90
46091;DHT22;31826;53.572;10.170;2024-01-30T05:18:59;3.40;99.90
46091;DHT22;31826;53.572;10.170;2024-01-30T05:21:25;3.40;99.90
46091;DHT22;31826;53.572;10.170;2024-01-30T05:23:50;3.40;99.90
46091;DHT22;31826;53.572;10.170;2024-01-30T05:26:16;3.40;99.90
46091;DHT22;31826;53.572;10.170;2024-01-30T05:28:42;3.30;99.90
46091;DHT22;31826;53.572;10.170;2024-01-30T05:31:10;3.30;99.90
46091;DHT22;31826;53.572;10.170;2024-01-30T05:33:36;3.30;99.90
46091;DHT22;31826;53.572;10.170;2024-01-30T05:36:02;3.30;99.90
46091;DHT22;31826;53.572;10.170;2024-01-30T05:38:29;3.30;99.90
46091;DHT22;31826;53.572;10.170;2024-01-30T05:40:55;3.30;99.90
46091;DHT22;31826;53.572;10.170;2024-01-30T05:43:21;3.30;99.90
46091;DHT22;31826;53.572;10.170;2024-01-30T05:45:47;3.40;99.90
46091;DHT22;31826;53.572;10.170;2024-01-30T05:48:12;3.40;99.90
46091;DHT22;31826;53.572;10.170;2024-01-30T05:50:38;3.40;99.90
46091;DHT22;31826;53.572;10.170;2024-01-30T05:53:04;3.40;99.90
46091;DHT22;31826;53.572;10.170;2024-01-30T05:55:29;3.40;99.90
46091;DHT22;31826;53.572;10.170;2024-01-30T05:57:55;3.40;99.90
46091;DHT22;31826;53.572;10.170;2024-01-30T06:00:21;3.40;99.90
46091;DHT22;31826;53.572;10.170;2024-01-30T06:02:46;3.40;99.90
46091;DHT22;31826;53.572;10.170;2024-01-30T06:05:12;3.40;99.90
46091;DHT22;31826;53.572;10.170;2024-01-30T06:07:38;3.40;99.90
46091;DHT22;31826;53.572;10.170;2024-01-30T06:10:04;3.50;99.90
46091;DHT22;31826;53.572;10.170;2024-01-30T06:12:30;3.40;99.90
46091;DHT22;31826;53.572;10.170;2024-01-30T06:14:55;3.50;99.90
46091;DHT22;31826;53.572;10.170;2024-01-30T06:17:23;3.50;99.90
46091;DHT22;31826;53.572;10.170;2024-01-30T06:19:49;3.50;99.90
46091;DHT22;31826;53.572;10.170;2024-01-30T06:22:15;3.50;99.90
46091;DHT22;31826;53.572;10.170;2024-01-30T06:24:41;3.60;99.90
46091;DHT22;31826;53.572;10.170;2024-01-30T06:27:07;3.60;99.90
46091;DHT22;31826;53.572;10.170;2024-01-30T06:29:33;3.70;99.90
46091;DHT22;31826;53.572;10.170;2024-01-30T06:31:59;3.70;99.90
46091;DHT22;31826;53.572;10.170;2024-01-30T06:34:24;3.70;99.90
46091;DHT22;31826;53.572;10.170;2024-01-30T06:36:51;3.70;99.90
46091;DHT22;31826;53.572;10.170;2024-01-30T06:39:17;3.70;99.90
46091;DHT22;31826;53.572;10.170;2024-01-30T06:41:43;3.70;99.90
46091;DHT22;31826;53.572;10.170;2024-01-30T06:44:09;3.80;99.90
46091;DHT22;31826;53.572;10.170;2024-01-30T06:46:35;3.90;99.90
46091;DHT22;31826;53.572;10.170;2024-01-30T06:49:01;3.80;99.90
46091;DHT22;31826;53.572;10.170;2024-01-30T06:51:26;3.90;99.90
46091;DHT22;31826;53.572;10.170;2024-01-30T06:53:52;3.90;99.90
46091;DHT22;31826;53.572;10.170;2024-01-30T06:56:18;3.90;99.90
46091;DHT22;31826;53.572;10.170;2024-01-30T06:58:47;3.90;99.90
46091;DHT22;31826;53.572;10.170;2024-01-30T07:01:14;3.90;99.90
46091;DHT22;31826;53.572;10.170;2024-01-30T07:03:40;3.90;99.90
46091;DHT22;31826;53.572;10.170;2024-01-30T07:06:05;3.90;99.90
46091;DHT22;31826;53.572;10.170;2024-01-30T07:08:31;3.90;99.90
46091;DHT22;31826;53.572;10.170;2024-01-30T07:10:57;3.90;99.90
46091;DHT22;31826;53.572;10.170;2024-01-30T07:13:23;3.90;99.90
46091;DHT22;31826;53.572;10.170;2024-01-30T07:15:48;3.90;99.90
46091;DHT22;31826;53.572;10.170;2024-01-30T07:18:14;3.80;99.90
46091;DHT22;31826;53.572;10.170;2024-01-30T07:20:40;3.80;99.90
46091;DHT22;31826;53.572;10.170;2024-01-30T07:23:15;3.80;99.90
46091;DHT22;31826;53.572;10.170;2024-01-30T07:25:43;3.80;99.90
46091;DHT22;31826;53.572;10.170;2024-01-30T07:28:09;3.80;99.90
46091;DHT22;31826;53.572;10.170;2024-01-30T07:30:36;3.80;99.90
46091;DHT22;31826;53.572;10.170;2024-01-30T07:33:02;3.90;99.90
46091;DHT22;31826;53.572;10.170;2024-01-30T07:35:28;3.90;99.90
46091;DHT22;31826;53.572;10.170;2024-01-30T07:37:53;3.90;99.90
46091;DHT22;31826;53.572;10.170;2024-01-30T07:40:19;4.00;99.90
46091;DHT22;31826;53.572;10.170;2024-01-30T07:42:45;4.00;99.90
46091;DHT22;31826;53.572;10.170;2024-01-30T07:45:10;4.00;99.90
46091;DHT22;31826;53.572;10.170;2024-01-30T07:47:36;4.10;99.90
46091;DHT22;31826;53.572;10.170;2024-01-30T07:50:02;4.20;99.90
46091;DHT22;31826;53.572;10.170;2024-01-30T07:52:28;4.20;99.90
46091;DHT22;31826;53.572;10.170;2024-01-30T07:54:54;4.20;99.90
46091;DHT22;31826;53.572;10.170;2024-01-30T07:57:20;4.30;99.90
46091;DHT22;31826;53.572;10.170;2024-01-30T07:59:46;4.30;99.90
46091;DHT22;31826;53.572;10.170;2024-01-30T08:02:12;4.30;99.90
46091;DHT22;31826;53.572;10.170;2024-01-30T08:04:38;4.30;99.90
46091;DHT22;31826;53.572;10.170;2024-01-30T08:07:04;4.30;99.90
46091;DHT22;31826;53.572;10.170;2024-01-30T08:09:30;4.30;99.90
46091;DHT22;31826;53.572;10.170;2024-01-30T08:11:56;4.30;99.90
46091;DHT22;31826;53.572;10.170;2024-01-30T08:14:21;4.30;99.90
46091;DHT22;31826;53.572;10.170;2024-01-30T08:16:47;4.30;99.90
46091;DHT22;31826;53.572;10.170;2024-01-30T08:19:14;4.40;99.90
46091;DHT22;31826;53.572;10.170;2024-01-30T08:21:40;4.40;99.90
46091;DHT22;31826;53.572;10.170;2024-01-30T08:24:07;4.40;99.90
46091;DHT22;31826;53.572;10.170;2024-01-30T08:26:33;4.40;99.90
46091;DHT22;31826;53.572;10.170;2024-01-30T08:28:59;4.50;99.90
46091;DHT22;31826;53.572;10.170;2024-01-30T08:31:26;4.50;99.90
46091;DHT22;31826;53.572;10.170;2024-01-30T08:33:52;4.60;99.90
46091;DHT22;31826;53.572;10.170;2024-01-30T08:36:18;4.50;99.90
46091;DHT22;31826;53.572;10.170;2024-01-30T08:38:44;4.60;99.90
46091;DHT22;31826;53.572;10.170;2024-01-30T08:41:10;4.70;99.90
46091;DHT22;31826;53.572;10.170;2024-01-30T08:43:36;4.80;99.90
46091;DHT22;31826;53.572;10.170;2024-01-30T08:46:02;4.80;99.90
46091;DHT22;31826;53.572;10.170;2024-01-30T08:48:29;4.90;99.90
46091;DHT22;31826;53.572;10.170;2024-01-30T08:50:54;5.00;99.90
46091;DHT22;31826;53.572;10.170;2024-01-30T08:53:20;5.00;99.90
46091;DHT22;31826;53.572;10.170;2024-01-30T08:55:46;5.00;99.90
46091;DHT22;31826;53.572;10.170;2024-01-30T08:58:11;5.10;99.90
46091;DHT22;31826;53.572;10.170;2024-01-30T09:00:37;5.10;99.90
46091;DHT22;31826;53.572;10.170;2024-01-30T09:03:03;5.10;99.90
46091;DHT22;31826;53.572;10.170;2024-01-30T09:05:29;5.20;99.90
46091;DHT22;31826;53.572;10.170;2024-01-30T09:07:55;5.20;99.90
46091;DHT22;31826;53.572;10.170;2024-01-30T09:10:21;5.30;99.90
46091;DHT22;31826;53.572;10.170;2024-01-30T09:12:47;5.50;99.90
46091;DHT22;31826;53.572;10.170;2024-01-30T09:15:13;5.60;99.90
46091;DHT22;31826;53.572;10.170;2024-01-30T09:17:39;5.70;99.90
46091;DHT22;31826;53.572;10.170;2024-01-30T09:20:05;5.70;99.90
46091;DHT22;31826;53.572;10.170;2024-01-30T09:22:31;5.80;99.90
46091;DHT22;31826;53.572;10.170;2024-01-30T09:24:57;5.80;99.90
46091;DHT22;31826;53.572;10.170;2024-01-30T09:27:23;5.90;99.90
46091;DHT22;31826;53.572;10.170;2024-01-30T09:29:49;5.90;99.90
46091;DHT22;31826;53.572;10.170;2024-01-30T09:32:15;6.00;99.90
46091;DHT22;31826;53.572;10.170;2024-01-30T09:34:40;6.00;99.90
46091;DHT22;31826;53.572;10.170;2024-01-30T09:37:07;6.10;99.90
46091;DHT22;31826;53.572;10.170;2024-01-30T09:39:32;6.10;99.90
46091;DHT22;31826;53.572;10.170;2024-01-30T09:42:18;6.10;99.90
46091;DHT22;31826;53.572;10.170;2024-01-30T09:44:47;6.10;99.90
46091;DHT22;31826;53.572;10.170;2024-01-30T09:47:16;6.20;99.90
46091;DHT22;31826;53.572;10.170;2024-01-30T09:49:43;6.20;99.90
46091;DHT22;31826;53.572;10.170;2024-01-30T09:52:10;6.30;99.90
46091;DHT22;31826;53.572;10.170;2024-01-30T09:54:36;6.30;99.90
46091;DHT22;31826;53.572;10.170;2024-01-30T09:57:04;6.30;99.90
46091;DHT22;31826;53.572;10.170;2024-01-30T09:59:30;6.30;99.90
46091;DHT22;31826;53.572;10.170;2024-01-30T10:01:56;6.40;99.90
46091;DHT22;31826;53.572;10.170;2024-01-30T10:04:22;6.40;99.90
46091;DHT22;31826;53.572;10.170;2024-01-30T10:06:48;6.50;99.90
46091;DHT22;31826;53.572;10.170;2024-01-30T10:09:14;6.50;99.90
46091;DHT22;31826;53.572;10.170;2024-01-30T10:11:39;6.60;99.90
46091;DHT22;31826;53.572;10.170;2024-01-30T10:14:05;6.70;99.90
46091;DHT22;31826;53.572;10.170;2024-01-30T10:16:31;6.80;99.90
46091;DHT22;31826;53.572;10.170;2024-01-30T10:18:56;6.90;99.90
46091;DHT22;31826;53.572;10.170;2024-01-30T10:21:22;6.90;99.90
46091;DHT22;31826;53.572;10.170;2024-01-30T10:23:49;6.90;99.90
46091;DHT22;31826;53.572;10.170;2024-01-30T10:26:16;6.90;99.90
46091;DHT22;31826;53.572;10.170;2024-01-30T10:28:43;6.90;99.90
46091;DHT22;31826;53.572;10.170;2024-01-30T10:31:08;6.90;99.90
46091;DHT22;31826;53.572;10.170;2024-01-30T10:33:34;7.00;99.90
46091;DHT22;31826;53.572;10.170;2024-01-30T10:36:01;7.10;99.90
46091;DHT22;31826;53.572;10.170;2024-01-30T10:38:31;7.20;99.90
46091;DHT22;31826;53.572;10.170;2024-01-30T10:40:58;7.10;99.90
46091;DHT22;31826;53.572;10.170;2024-01-30T10:43:31;7.10;99.90
46091;DHT22;31826;53.572;10.170;2024-01-30T10:46:26;7.10;99.90
46091;DHT22;31826;53.572;10.170;2024-01-30T10:48:56;7.10;99.90
46091;DHT22;31826;53.572;10.170;2024-01-30T10:51:24;7.20;99.90
46091;DHT22;31826;53.572;10.170;2024-01-30T10:53:51;7.20;99.90
46091;DHT22;31826;53.572;10.170;2024-01-30T10:56:21;7.20;99.90
46091;DHT22;31826;53.572;10.170;2024-01-30T10:58:48;7.30;99.90
46091;DHT22;31826;53.572;10.170;2024-01-30T11:01:14;7.30;99.90
46091;DHT22;31826;53.572;10.170;2024-01-30T11:03:41;7.40;99.90
46091;DHT22;31826;53.572;10.170;2024-01-30T11:06:11;7.40;99.90
46091;DHT22;31826;53.572;10.170;2024-01-30T11:08:39;7.50;99.90
46091;DHT22;31826;53.572;10.170;2024-01-30T11:11:09;7.60;99.90
46091;DHT22;31826;53.572;10.170;2024-01-30T11:13:35;7.60;99.90
46091;DHT22;31826;53.572;10.170;2024-01-30T11:16:04;7.60;99.90
46091;DHT22;31826;53.572;10.170;2024-01-30T11:18:31;7.70;99.90
46091;DHT22;31826;53.572;10.170;2024-01-30T11:20:58;7.70;99.90
46091;DHT22;31826;53.572;10.170;2024-01-30T11:23:25;7.80;99.90
46091;DHT22;31826;53.572;10.170;2024-01-30T11:25:52;7.80;99.90
46091;DHT22;31826;53.572;10.170;2024-01-30T11:28:18;7.80;99.90
46091;DHT22;31826;53.572;10.170;2024-01-30T11:30:46;7.90;99.90
46091;DHT22;31826;53.572;10.170;2024-01-30T11:33:14;7.90;99.90
46091;DHT22;31826;53.572;10.170;2024-01-30T11:35:41;7.90;99.90
46091;DHT22;31826;53.572;10.170;2024-01-30T11:38:08;7.90;99.90
46091;DHT22;31826;53.572;10.170;2024-01-30T11:40:36;7.90;99.90
46091;DHT22;31826;53.572;10.170;2024-01-30T11:43:04;7.90;99.90
46091;DHT22;31826;53.572;10.170;2024-01-30T11:45:33;7.90;99.90
46091;DHT22;31826;53.572;10.170;2024-01-30T11:48:00;8.00;99.90
46091;DHT22;31826;53.572;10.170;2024-01-30T11:50:27;8.00;99.90
46091;DHT22;31826;53.572;10.170;2024-01-30T11:52:54;8.00;99.90
46091;DHT22;31826;53.572;10.170;2024-01-30T11:55:20;8.00;99.90
46091;DHT22;31826;53.572;10.170;2024-01-30T11:57:45;8.00;99.90
46091;DHT22;31826;53.572;10.170;2024-01-30T12:00:15;8.00;99.90
46091;DHT22;31826;53.572;10.170;2024-01-30T12:02:42;8.00;99.90
46091;DHT22;31826;53.572;10.170;2024-01-30T12:05:08;8.00;99.90
46091;DHT22;31826;53.572;10.170;2024-01-30T12:07:35;8.10;99.90
46091;DHT22;31826;53.572;10.170;2024-01-30T12:10:01;8.10;99.90
46091;DHT22;31826;53.572;10.170;2024-01-30T12:12:28;8.10;99.90
46091;DHT22;31826;53.572;10.170;2024-01-30T12:14:55;8.10;99.90
46091;DHT22;31826;53.572;10.170;2024-01-30T12:17:33;8.10;99.90
46091;DHT22;31826;53.572;10.170;2024-01-30T12:20:19;8.20;99.90
46091;DHT22;31826;53.572;10.170;2024-01-30T12:22:47;8.20;99.90
46091;DHT22;31826;53.572;10.170;2024-01-30T12:25:15;8.30;99.90
46091;DHT22;31826;53.572;10.170;2024-01-30T12:27:45;8.30;99.90
46091;DHT22;31826;53.572;10.170;2024-01-30T12:30:14;8.40;99.90
46091;DHT22;31826;53.572;10.170;2024-01-30T12:32:42;8.40;99.90
46091;DHT22;31826;53.572;10.170;2024-01-30T12:35:12;8.30;99.90
46091;DHT22;31826;53.572;10.170;2024-01-30T12:37:39;8.30;99.90
46091;DHT22;31826;53.572;10.170;2024-01-30T12:40:05;8.40;99.90
46091;DHT22;31826;53.572;10.170;2024-01-30T12:42:35;8.40;99.90
46091;DHT22;31826;53.572;10.170;2024-01-30T12:45:02;8.30;99.90
46091;DHT22;31826;53.572;10.170;2024-01-30T12:47:28;8.40;99.90
46091;DHT22;31826;53.572;10.170;2024-01-30T12:49:54;8.40;99.90
46091;DHT22;31826;53.572;10.170;2024-01-30T12:52:21;8.40;99.90
46091;DHT22;31826;53.572;10.170;2024-01-30T12:54:47;8.50;99.90
46091;DHT22;31826;53.572;10.170;2024-01-30T12:57:13;8.50;99.90
46091;DHT22;31826;53.572;10.170;2024-01-30T12:59:39;8.50;99.90
46091;DHT22;31826;53.572;10.170;2024-01-30T13:02:06;8.60;99.90
46091;DHT22;31826;53.572;10.170;2024-01-30T13:04:32;8.50;99.90
46091;DHT22;31826;53.572;10.170;2024-01-30T13:06:58;8.50;99.90
46091;DHT22;31826;53.572;10.170;2024-01-30T13:09:24;8.60;99.90
46091;DHT22;31826;53.572;10.170;2024-01-30T13:11:50;8.60;99.90
46091;DHT22;31826;53.572;10.170;2024-01-30T13:14:17;8.60;99.90
46091;DHT22;31826;53.572;10.170;2024-01-30T13:16:43;8.70;99.90
46091;DHT22;31826;53.572;10.170;2024-01-30T13:19:09;8.70;99.90
46091;DHT22;31826;53.572;10.170;2024-01-30T13:21:34;8.70;99.90
46091;DHT22;31826;53.572;10.170;2024-01-30T13:24:00;8.80;99.90
46091;DHT22;31826;53.572;10.170;2024-01-30T13:26:26;8.70;99.90
46091;DHT22;31826;53.572;10.170;2024-01-30T13:28:52;8.70;99.90
46091;DHT22;31826;53.572;10.170;2024-01-30T13:31:18;8.70;99.90
46091;DHT22;31826;53.572;10.170;2024-01-30T13:33:45;8.70;99.90
46091;DHT22;31826;53.572;10.170;2024-01-30T13:36:11;8.70;99.90
46091;DHT22;31826;53.572;10.170;2024-01-30T13:38:37;8.80;99.90
46091;DHT22;31826;53.572;10.170;2024-01-30T13:41:04;8.80;99.90
46091;DHT22;31826;53.572;10.170;2024-01-30T13:43:30;8.90;99.90
46091;DHT22;31826;53.572;10.170;2024-01-30T13:45:56;8.80;99.90
46091;DHT22;31826;53.572;10.170;2024-01-30T13:48:21;8.90;99.90
46091;DHT22;31826;53.572;10.170;2024-01-30T13:50:47;9.00;99.90
46091;DHT22;31826;53.572;10.170;2024-01-30T13:53:13;9.00;99.90
46091;DHT22;31826;53.572;10.170;2024-01-30T13:55:39;9.10;99.90
46091;DHT22;31826;53.572;10.170;2024-01-30T13:58:08;9.00;99.90
46091;DHT22;31826;53.572;10.170;2024-01-30T14:00:34;9.10;99.90
46091;DHT22;31826;53.572;10.170;2024-01-30T14:03:00;9.10;99.90
46091;DHT22;31826;53.572;10.170;2024-01-30T14:05:26;9.10;99.90
46091;DHT22;31826;53.572;10.170;2024-01-30T14:07:53;9.20;99.90
46091;DHT22;31826;53.572;10.170;2024-01-30T14:10:19;9.20;99.90
46091;DHT22;31826;53.572;10.170;2024-01-30T14:12:46;9.20;99.90
46091;DHT22;31826;53.572;10.170;2024-01-30T14:15:13;9.20;99.90
46091;DHT22;31826;53.572;10.170;2024-01-30T14:17:40;9.20;99.90
46091;DHT22;31826;53.572;10.170;2024-01-30T14:20:07;9.10;99.90
46091;DHT22;31826;53.572;10.170;2024-01-30T14:22:36;9.20;99.90
46091;DHT22;31826;53.572;10.170;2024-01-30T14:25:02;9.20;99.90
46091;DHT22;31826;53.572;10.170;2024-01-30T14:27:31;9.20;99.90
46091;DHT22;31826;53.572;10.170;2024-01-30T14:29:57;9.20;99.90
46091;DHT22;31826;53.572;10.170;2024-01-30T14:32:23;9.10;99.90
46091;DHT22;31826;53.572;10.170;2024-01-30T14:34:50;9.20;99.90
46091;DHT22;31826;53.572;10.170;2024-01-30T14:37:16;9.20;99.90
46091;DHT22;31826;53.572;10.170;2024-01-30T14:39:42;9.20;99.90
46091;DHT22;31826;53.572;10.170;2024-01-30T14:42:08;9.20;99.90
46091;DHT22;31826;53.572;10.170;2024-01-30T14:44:34;9.20;99.90
46091;DHT22;31826;53.572;10.170;2024-01-30T14:47:00;9.20;99.90
46091;DHT22;31826;53.572;10.170;2024-01-30T14:49:26;9.10;99.90
46091;DHT22;31826;53.572;10.170;2024-01-30T14:51:52;9.20;99.90
46091;DHT22;31826;53.572;10.170;2024-01-30T14:54:17;9.10;99.90
46091;DHT22;31826;53.572;10.170;2024-01-30T14:56:44;9.20;99.90
46091;DHT22;31826;53.572;10.170;2024-01-30T14:59:10;9.10;99.90
46091;DHT22;31826;53.572;10.170;2024-01-30T15:01:36;9.20;99.90
46091;DHT22;31826;53.572;10.170;2024-01-30T15:04:01;9.10;99.90
46091;DHT22;31826;53.572;10.170;2024-01-30T15:06:28;9.20;99.90
46091;DHT22;31826;53.572;10.170;2024-01-30T15:08:54;9.20;99.90
46091;DHT22;31826;53.572;10.170;2024-01-30T15:11:20;9.20;99.90
46091;DHT22;31826;53.572;10.170;2024-01-30T15:13:45;9.20;99.90
46091;DHT22;31826;53.572;10.170;2024-01-30T15:16:12;9.20;99.90
46091;DHT22;31826;53.572;10.170;2024-01-30T15:18:38;9.20;99.90
46091;DHT22;31826;53.572;10.170;2024-01-30T15:21:03;9.20;99.90
46091;DHT22;31826;53.572;10.170;2024-01-30T15:23:29;9.20;99.90
46091;DHT22;31826;53.572;10.170;2024-01-30T15:25:55;9.20;99.90